Edgewater, New Jersey
Current Conditions -  °F | °C
As of 12:09 AM on Wednesday 22 Oct 2014 (Local Time) from KNYC Reporting Station
Broken Clouds Broken Clouds  
Wind Chill: 56°   Ceiling: 1800
Heat Index: 56°   Visibility: 10mi
Dew Point: 52°   Wind: 5mph
Humidity: 87%   Direction: NA
Pressure: 29.93"   Gusts: NA
Location:  40.83°N, 73.97°W
Report Text: KNYC 220409Z AUTO VRB04KT 10SM BKN018 BKN025 13/11 A2993 RMK AO2 T01330111 $
Loading
Personal Weather Stations






























Interactive Weather Map
Tropical Storm Tracking
New forecast layout! Learn more

10-Day Weather Forecast

Advertisements
Track Severe Weather on mobile